sensor_id;sensor_type;location;lat;lon;timestamp;P1;durP1;ratioP1;P2;durP2;ratioP2
74963;SDS011;63521;51.900;4.748;2023-01-10T00:00:48;2.80;;;1.00;;
74963;SDS011;63521;51.900;4.748;2023-01-10T00:03:13;1.48;;;0.80;;
74963;SDS011;63521;51.900;4.748;2023-01-10T00:05:39;0.70;;;0.70;;
74963;SDS011;63521;51.900;4.748;2023-01-10T00:08:05;0.88;;;0.82;;
74963;SDS011;63521;51.900;4.748;2023-01-10T00:10:32;2.90;;;1.00;;
74963;SDS011;63521;51.900;4.748;2023-01-10T00:12:57;2.05;;;0.70;;
74963;SDS011;63521;51.900;4.748;2023-01-10T00:15:41;1.55;;;0.80;;
74963;SDS011;63521;51.900;4.748;2023-01-10T00:18:07;1.08;;;0.70;;
74963;SDS011;63521;51.900;4.748;2023-01-10T00:20:32;1.77;;;0.93;;
74963;SDS011;63521;51.900;4.748;2023-01-10T00:22:58;1.70;;;0.73;;
74963;SDS011;63521;51.900;4.748;2023-01-10T00:25:23;0.90;;;0.63;;
74963;SDS011;63521;51.900;4.748;2023-01-10T00:27:49;0.73;;;0.70;;
74963;SDS011;63521;51.900;4.748;2023-01-10T00:30:21;1.58;;;0.80;;
74963;SDS011;63521;51.900;4.748;2023-01-10T00:32:47;1.30;;;0.70;;
74963;SDS011;63521;51.900;4.748;2023-01-10T00:35:13;1.65;;;0.90;;
74963;SDS011;63521;51.900;4.748;2023-01-10T00:37:38;1.58;;;0.80;;
74963;SDS011;63521;51.900;4.748;2023-01-10T00:40:05;1.75;;;0.73;;
74963;SDS011;63521;51.900;4.748;2023-01-10T00:42:35;1.35;;;0.73;;
74963;SDS011;63521;51.900;4.748;2023-01-10T00:45:19;2.28;;;0.90;;
74963;SDS011;63521;51.900;4.748;2023-01-10T00:47:46;1.58;;;0.60;;
74963;SDS011;63521;51.900;4.748;2023-01-10T00:50:12;0.85;;;0.50;;
74963;SDS011;63521;51.900;4.748;2023-01-10T00:52:37;0.75;;;0.63;;
74963;SDS011;63521;51.900;4.748;2023-01-10T00:55:03;0.70;;;0.70;;
74963;SDS011;63521;51.900;4.748;2023-01-10T00:57:29;1.92;;;0.80;;
74963;SDS011;63521;51.900;4.748;2023-01-10T00:59:54;0.93;;;0.57;;
74963;SDS011;63521;51.900;4.748;2023-01-10T01:02:19;0.85;;;0.55;;
74963;SDS011;63521;51.900;4.748;2023-01-10T01:04:45;1.42;;;0.65;;
74963;SDS011;63521;51.900;4.748;2023-01-10T01:07:10;1.35;;;0.60;;
74963;SDS011;63521;51.900;4.748;2023-01-10T01:09:36;1.55;;;0.73;;
74963;SDS011;63521;51.900;4.748;2023-01-10T01:12:21;2.35;;;0.55;;
74963;SDS011;63521;51.900;4.748;2023-01-10T01:14:46;1.25;;;0.68;;
74963;SDS011;63521;51.900;4.748;2023-01-10T01:17:12;2.28;;;0.82;;
74963;SDS011;63521;51.900;4.748;2023-01-10T01:19:37;1.63;;;0.77;;
74963;SDS011;63521;51.900;4.748;2023-01-10T01:22:03;1.33;;;0.70;;
74963;SDS011;63521;51.900;4.748;2023-01-10T01:24:28;1.88;;;0.70;;
74963;SDS011;63521;51.900;4.748;2023-01-10T01:26:53;2.78;;;0.73;;
74963;SDS011;63521;51.900;4.748;2023-01-10T01:29:19;1.95;;;0.70;;
74963;SDS011;63521;51.900;4.748;2023-01-10T01:31:44;0.90;;;0.57;;
74963;SDS011;63521;51.900;4.748;2023-01-10T01:34:10;0.75;;;0.65;;
74963;SDS011;63521;51.900;4.748;2023-01-10T01:36:35;1.17;;;0.65;;
74963;SDS011;63521;51.900;4.748;2023-01-10T01:39:01;1.00;;;0.68;;
74963;SDS011;63521;51.900;4.748;2023-01-10T01:41:27;0.60;;;0.50;;
74963;SDS011;63521;51.900;4.748;2023-01-10T01:44:15;1.52;;;0.70;;
74963;SDS011;63521;51.900;4.748;2023-01-10T01:46:41;2.72;;;0.65;;
74963;SDS011;63521;51.900;4.748;2023-01-10T01:49:12;2.03;;;0.77;;
74963;SDS011;63521;51.900;4.748;2023-01-10T01:51:40;1.13;;;0.63;;
74963;SDS011;63521;51.900;4.748;2023-01-10T01:54:09;1.80;;;0.60;;
74963;SDS011;63521;51.900;4.748;2023-01-10T01:56:49;0.73;;;0.57;;
74963;SDS011;63521;51.900;4.748;2023-01-10T01:59:22;3.92;;;0.70;;
74963;SDS011;63521;51.900;4.748;2023-01-10T02:01:51;1.88;;;0.80;;
74963;SDS011;63521;51.900;4.748;2023-01-10T02:04:21;2.20;;;0.65;;
74963;SDS011;63521;51.900;4.748;2023-01-10T02:06:50;2.95;;;0.70;;
74963;SDS011;63521;51.900;4.748;2023-01-10T02:11:53;2.03;;;0.70;;
74963;SDS011;63521;51.900;4.748;2023-01-10T02:14:19;2.20;;;0.50;;
74963;SDS011;63521;51.900;4.748;2023-01-10T02:16:44;2.50;;;0.90;;
74963;SDS011;63521;51.900;4.748;2023-01-10T02:19:19;2.08;;;0.70;;
74963;SDS011;63521;51.900;4.748;2023-01-10T02:25:08;1.88;;;0.80;;
74963;SDS011;63521;51.900;4.748;2023-01-10T02:33:18;1.20;;;0.70;;
74963;SDS011;63521;51.900;4.748;2023-01-10T02:43:48;3.60;;;0.55;;
74963;SDS011;63521;51.900;4.748;2023-01-10T02:46:17;3.20;;;0.90;;
74963;SDS011;63521;51.900;4.748;2023-01-10T02:48:49;4.03;;;0.80;;
74963;SDS011;63521;51.900;4.748;2023-01-10T02:51:16;2.25;;;0.60;;
74963;SDS011;63521;51.900;4.748;2023-01-10T02:53:46;3.53;;;0.70;;
74963;SDS011;63521;51.900;4.748;2023-01-10T03:04:53;3.90;;;0.68;;
74963;SDS011;63521;51.900;4.748;2023-01-10T03:07:37;3.13;;;0.90;;
74963;SDS011;63521;51.900;4.748;2023-01-10T03:10:09;5.97;;;1.05;;
74963;SDS011;63521;51.900;4.748;2023-01-10T03:12:41;3.55;;;0.80;;
74963;SDS011;63521;51.900;4.748;2023-01-10T03:15:11;3.17;;;0.77;;
74963;SDS011;63521;51.900;4.748;2023-01-10T03:17:38;2.05;;;0.80;;
74963;SDS011;63521;51.900;4.748;2023-01-10T03:20:04;4.78;;;1.00;;
74963;SDS011;63521;51.900;4.748;2023-01-10T03:22:30;4.90;;;0.90;;
74963;SDS011;63521;51.900;4.748;2023-01-10T03:24:58;2.80;;;1.02;;
74963;SDS011;63521;51.900;4.748;2023-01-10T03:33:07;3.10;;;0.98;;
74963;SDS011;63521;51.900;4.748;2023-01-10T03:35:48;3.22;;;0.85;;
74963;SDS011;63521;51.900;4.748;2023-01-10T03:38:28;4.75;;;0.90;;
74963;SDS011;63521;51.900;4.748;2023-01-10T03:43:38;2.65;;;0.80;;
74963;SDS011;63521;51.900;4.748;2023-01-10T03:46:35;4.07;;;1.20;;
74963;SDS011;63521;51.900;4.748;2023-01-10T03:49:02;2.45;;;0.77;;
74963;SDS011;63521;51.900;4.748;2023-01-10T03:51:29;4.45;;;1.25;;
74963;SDS011;63521;51.900;4.748;2023-01-10T03:53:57;3.50;;;0.80;;
74963;SDS011;63521;51.900;4.748;2023-01-10T03:56:24;2.42;;;0.80;;
74963;SDS011;63521;51.900;4.748;2023-01-10T03:58:49;4.28;;;0.85;;
74963;SDS011;63521;51.900;4.748;2023-01-10T04:01:14;3.38;;;1.00;;
74963;SDS011;63521;51.900;4.748;2023-01-10T04:03:41;3.72;;;0.82;;
74963;SDS011;63521;51.900;4.748;2023-01-10T04:06:06;2.08;;;0.82;;
74963;SDS011;63521;51.900;4.748;2023-01-10T04:08:32;3.83;;;0.90;;
74963;SDS011;63521;51.900;4.748;2023-01-10T04:10:57;5.22;;;0.90;;
74963;SDS011;63521;51.900;4.748;2023-01-10T04:13:23;4.72;;;0.95;;
74963;SDS011;63521;51.900;4.748;2023-01-10T04:15:48;2.60;;;0.75;;
74963;SDS011;63521;51.900;4.748;2023-01-10T04:18:14;3.30;;;0.88;;
74963;SDS011;63521;51.900;4.748;2023-01-10T04:20:40;2.33;;;0.77;;
74963;SDS011;63521;51.900;4.748;2023-01-10T04:23:05;5.47;;;1.20;;
74963;SDS011;63521;51.900;4.748;2023-01-10T04:25:30;3.03;;;0.90;;
74963;SDS011;63521;51.900;4.748;2023-01-10T04:27:56;3.50;;;1.10;;
74963;SDS011;63521;51.900;4.748;2023-01-10T04:30:21;6.55;;;1.08;;
74963;SDS011;63521;51.900;4.748;2023-01-10T04:32:47;1.60;;;0.90;;
74963;SDS011;63521;51.900;4.748;2023-01-10T04:35:12;5.60;;;1.20;;
74963;SDS011;63521;51.900;4.748;2023-01-10T04:37:38;4.55;;;1.05;;
74963;SDS011;63521;51.900;4.748;2023-01-10T04:40:03;5.93;;;0.90;;
74963;SDS011;63521;51.900;4.748;2023-01-10T04:42:29;1.40;;;0.82;;
74963;SDS011;63521;51.900;4.748;2023-01-10T04:44:54;3.10;;;0.70;;
74963;SDS011;63521;51.900;4.748;2023-01-10T04:47:20;4.85;;;1.25;;
74963;SDS011;63521;51.900;4.748;2023-01-10T04:49:45;3.17;;;1.17;;
74963;SDS011;63521;51.900;4.748;2023-01-10T04:52:10;1.10;;;0.80;;
74963;SDS011;63521;51.900;4.748;2023-01-10T04:54:36;3.08;;;0.88;;
74963;SDS011;63521;51.900;4.748;2023-01-10T04:57:01;1.83;;;0.93;;
74963;SDS011;63521;51.900;4.748;2023-01-10T04:59:28;2.22;;;0.95;;
74963;SDS011;63521;51.900;4.748;2023-01-10T05:01:55;3.33;;;0.80;;
74963;SDS011;63521;51.900;4.748;2023-01-10T05:04:20;5.18;;;1.00;;
74963;SDS011;63521;51.900;4.748;2023-01-10T05:06:46;3.92;;;0.88;;
74963;SDS011;63521;51.900;4.748;2023-01-10T05:09:13;2.83;;;0.90;;
74963;SDS011;63521;51.900;4.748;2023-01-10T05:11:38;0.85;;;0.63;;
74963;SDS011;63521;51.900;4.748;2023-01-10T05:14:04;3.15;;;0.73;;
74963;SDS011;63521;51.900;4.748;2023-01-10T05:16:29;1.92;;;0.77;;
74963;SDS011;63521;51.900;4.748;2023-01-10T05:18:55;3.67;;;0.90;;
74963;SDS011;63521;51.900;4.748;2023-01-10T05:21:20;4.07;;;0.77;;
74963;SDS011;63521;51.900;4.748;2023-01-10T05:23:45;4.78;;;0.90;;
74963;SDS011;63521;51.900;4.748;2023-01-10T05:26:12;0.90;;;0.77;;
74963;SDS011;63521;51.900;4.748;2023-01-10T05:28:39;3.25;;;1.00;;
74963;SDS011;63521;51.900;4.748;2023-01-10T05:31:06;2.28;;;0.75;;
74963;SDS011;63521;51.900;4.748;2023-01-10T05:33:32;3.67;;;0.80;;
74963;SDS011;63521;51.900;4.748;2023-01-10T05:36:05;3.10;;;0.77;;
74963;SDS011;63521;51.900;4.748;2023-01-10T05:38:31;3.45;;;0.80;;
74963;SDS011;63521;51.900;4.748;2023-01-10T05:40:57;2.70;;;0.90;;
74963;SDS011;63521;51.900;4.748;2023-01-10T05:43:23;3.50;;;0.77;;
74963;SDS011;63521;51.900;4.748;2023-01-10T05:45:49;1.75;;;0.60;;
74963;SDS011;63521;51.900;4.748;2023-01-10T05:48:15;2.08;;;0.90;;
74963;SDS011;63521;51.900;4.748;2023-01-10T05:50:40;2.15;;;0.73;;
74963;SDS011;63521;51.900;4.748;2023-01-10T05:53:05;2.42;;;0.70;;
74963;SDS011;63521;51.900;4.748;2023-01-10T05:55:31;3.05;;;0.77;;
74963;SDS011;63521;51.900;4.748;2023-01-10T05:57:57;2.60;;;0.80;;
74963;SDS011;63521;51.900;4.748;2023-01-10T06:00:23;3.75;;;0.80;;
74963;SDS011;63521;51.900;4.748;2023-01-10T06:02:48;2.47;;;0.80;;
74963;SDS011;63521;51.900;4.748;2023-01-10T06:05:14;1.60;;;0.60;;
74963;SDS011;63521;51.900;4.748;2023-01-10T06:07:39;2.30;;;0.70;;
74963;SDS011;63521;51.900;4.748;2023-01-10T06:10:05;2.22;;;0.63;;
74963;SDS011;63521;51.900;4.748;2023-01-10T06:12:31;2.05;;;0.80;;
74963;SDS011;63521;51.900;4.748;2023-01-10T06:14:56;2.38;;;0.70;;
74963;SDS011;63521;51.900;4.748;2023-01-10T06:17:21;2.13;;;0.85;;
74963;SDS011;63521;51.900;4.748;2023-01-10T06:19:47;4.80;;;1.15;;
74963;SDS011;63521;51.900;4.748;2023-01-10T06:22:12;1.92;;;0.52;;
74963;SDS011;63521;51.900;4.748;2023-01-10T06:24:37;1.10;;;0.60;;
74963;SDS011;63521;51.900;4.748;2023-01-10T06:27:03;2.17;;;1.00;;
74963;SDS011;63521;51.900;4.748;2023-01-10T06:29:28;4.63;;;0.85;;
74963;SDS011;63521;51.900;4.748;2023-01-10T06:31:54;2.70;;;0.80;;
74963;SDS011;63521;51.900;4.748;2023-01-10T06:34:19;1.85;;;0.70;;
74963;SDS011;63521;51.900;4.748;2023-01-10T06:36:45;2.10;;;0.45;;
74963;SDS011;63521;51.900;4.748;2023-01-10T06:39:10;2.40;;;0.70;;
74963;SDS011;63521;51.900;4.748;2023-01-10T06:41:35;1.08;;;0.68;;
74963;SDS011;63521;51.900;4.748;2023-01-10T06:44:01;3.70;;;0.68;;
74963;SDS011;63521;51.900;4.748;2023-01-10T06:46:26;1.27;;;0.50;;
74963;SDS011;63521;51.900;4.748;2023-01-10T06:48:52;2.00;;;0.70;;
74963;SDS011;63521;51.900;4.748;2023-01-10T06:51:17;1.73;;;0.80;;
74963;SDS011;63521;51.900;4.748;2023-01-10T06:53:42;3.78;;;0.85;;
74963;SDS011;63521;51.900;4.748;2023-01-10T06:56:08;1.95;;;0.80;;
74963;SDS011;63521;51.900;4.748;2023-01-10T06:58:34;0.88;;;0.60;;
74963;SDS011;63521;51.900;4.748;2023-01-10T07:01:03;4.20;;;0.90;;
74963;SDS011;63521;51.900;4.748;2023-01-10T07:03:31;2.05;;;0.57;;
74963;SDS011;63521;51.900;4.748;2023-01-10T07:06:01;2.75;;;0.60;;
74963;SDS011;63521;51.900;4.748;2023-01-10T07:08:27;1.88;;;0.70;;
74963;SDS011;63521;51.900;4.748;2023-01-10T07:10:52;3.42;;;0.63;;
74963;SDS011;63521;51.900;4.748;2023-01-10T07:13:19;1.13;;;0.68;;
74963;SDS011;63521;51.900;4.748;2023-01-10T07:15:44;2.80;;;0.82;;
74963;SDS011;63521;51.900;4.748;2023-01-10T07:18:09;1.42;;;0.73;;
74963;SDS011;63521;51.900;4.748;2023-01-10T07:20:35;1.75;;;0.70;;
74963;SDS011;63521;51.900;4.748;2023-01-10T07:23:00;4.78;;;0.80;;
74963;SDS011;63521;51.900;4.748;2023-01-10T07:25:26;2.42;;;0.80;;
74963;SDS011;63521;51.900;4.748;2023-01-10T07:27:59;3.08;;;0.90;;
74963;SDS011;63521;51.900;4.748;2023-01-10T07:30:24;1.65;;;0.95;;
74963;SDS011;63521;51.900;4.748;2023-01-10T07:32:56;3.90;;;0.90;;
74963;SDS011;63521;51.900;4.748;2023-01-10T07:35:23;3.25;;;0.70;;
74963;SDS011;63521;51.900;4.748;2023-01-10T07:37:49;3.45;;;0.80;;
74963;SDS011;63521;51.900;4.748;2023-01-10T07:40:14;2.35;;;0.82;;
74963;SDS011;63521;51.900;4.748;2023-01-10T07:42:39;1.70;;;0.80;;
74963;SDS011;63521;51.900;4.748;2023-01-10T07:45:05;4.88;;;1.13;;
74963;SDS011;63521;51.900;4.748;2023-01-10T07:47:33;2.58;;;0.88;;
74963;SDS011;63521;51.900;4.748;2023-01-10T07:49:59;2.78;;;0.88;;
74963;SDS011;63521;51.900;4.748;2023-01-10T07:52:25;1.70;;;1.00;;
74963;SDS011;63521;51.900;4.748;2023-01-10T07:54:50;1.42;;;1.00;;
74963;SDS011;63521;51.900;4.748;2023-01-10T07:57:17;4.18;;;1.30;;
74963;SDS011;63521;51.900;4.748;2023-01-10T07:59:45;4.80;;;1.15;;
74963;SDS011;63521;51.900;4.748;2023-01-10T08:02:10;1.35;;;0.82;;
74963;SDS011;63521;51.900;4.748;2023-01-10T08:04:36;5.28;;;1.05;;
74963;SDS011;63521;51.900;4.748;2023-01-10T08:07:04;3.47;;;0.93;;
74963;SDS011;63521;51.900;4.748;2023-01-10T08:09:30;2.60;;;1.10;;
74963;SDS011;63521;51.900;4.748;2023-01-10T08:11:55;3.17;;;1.02;;
74963;SDS011;63521;51.900;4.748;2023-01-10T08:14:20;2.13;;;1.27;;
74963;SDS011;63521;51.900;4.748;2023-01-10T08:16:46;3.70;;;1.00;;
74963;SDS011;63521;51.900;4.748;2023-01-10T08:19:11;1.90;;;0.90;;
74963;SDS011;63521;51.900;4.748;2023-01-10T08:21:40;2.08;;;0.88;;
74963;SDS011;63521;51.900;4.748;2023-01-10T08:24:06;3.20;;;0.90;;
74963;SDS011;63521;51.900;4.748;2023-01-10T08:26:31;3.90;;;1.02;;
74963;SDS011;63521;51.900;4.748;2023-01-10T08:28:57;4.68;;;1.20;;
74963;SDS011;63521;51.900;4.748;2023-01-10T08:31:23;5.00;;;1.30;;
74963;SDS011;63521;51.900;4.748;2023-01-10T08:33:48;1.98;;;0.82;;
74963;SDS011;63521;51.900;4.748;2023-01-10T08:36:15;3.33;;;0.95;;
74963;SDS011;63521;51.900;4.748;2023-01-10T08:38:41;2.97;;;1.10;;
74963;SDS011;63521;51.900;4.748;2023-01-10T08:41:06;3.55;;;1.42;;
74963;SDS011;63521;51.900;4.748;2023-01-10T08:43:32;5.10;;;1.80;;
74963;SDS011;63521;51.900;4.748;2023-01-10T08:45:57;2.72;;;1.13;;
74963;SDS011;63521;51.900;4.748;2023-01-10T08:48:23;2.67;;;0.82;;
74963;SDS011;63521;51.900;4.748;2023-01-10T08:50:48;5.00;;;1.20;;
74963;SDS011;63521;51.900;4.748;2023-01-10T08:53:13;5.32;;;1.42;;
74963;SDS011;63521;51.900;4.748;2023-01-10T08:55:39;3.53;;;1.10;;
74963;SDS011;63521;51.900;4.748;2023-01-10T08:58:04;3.03;;;1.02;;
74963;SDS011;63521;51.900;4.748;2023-01-10T09:00:29;4.25;;;1.48;;
74963;SDS011;63521;51.900;4.748;2023-01-10T09:02:55;3.47;;;1.27;;
74963;SDS011;63521;51.900;4.748;2023-01-10T09:05:20;5.65;;;1.73;;
74963;SDS011;63521;51.900;4.748;2023-01-10T09:07:46;3.90;;;1.10;;
74963;SDS011;63521;51.900;4.748;2023-01-10T09:10:12;2.03;;;1.08;;
74963;SDS011;63521;51.900;4.748;2023-01-10T09:12:37;7.03;;;1.10;;
74963;SDS011;63521;51.900;4.748;2023-01-10T09:15:23;2.03;;;1.05;;
74963;SDS011;63521;51.900;4.748;2023-01-10T09:17:53;3.20;;;1.20;;
74963;SDS011;63521;51.900;4.748;2023-01-10T09:20:19;4.10;;;1.23;;
74963;SDS011;63521;51.900;4.748;2023-01-10T09:22:45;2.50;;;0.85;;
74963;SDS011;63521;51.900;4.748;2023-01-10T09:25:10;3.45;;;1.23;;
74963;SDS011;63521;51.900;4.748;2023-01-10T09:27:36;3.85;;;1.23;;
74963;SDS011;63521;51.900;4.748;2023-01-10T09:30:02;3.58;;;1.40;;
74963;SDS011;63521;51.900;4.748;2023-01-10T09:32:28;2.42;;;1.13;;
74963;SDS011;63521;51.900;4.748;2023-01-10T09:34:53;3.65;;;1.10;;
74963;SDS011;63521;51.900;4.748;2023-01-10T09:37:19;2.33;;;1.27;;
74963;SDS011;63521;51.900;4.748;2023-01-10T09:39:44;4.80;;;1.20;;
74963;SDS011;63521;51.900;4.748;2023-01-10T09:45:35;3.22;;;1.63;;
74963;SDS011;63521;51.900;4.748;2023-01-10T09:48:04;1.90;;;1.10;;
74963;SDS011;63521;51.900;4.748;2023-01-10T09:53:20;4.65;;;1.35;;
74963;SDS011;63521;51.900;4.748;2023-01-10T09:55:54;1.58;;;1.00;;
74963;SDS011;63521;51.900;4.748;2023-01-10T09:58:21;4.57;;;1.60;;
74963;SDS011;63521;51.900;4.748;2023-01-10T10:00:53;4.40;;;1.00;;
74963;SDS011;63521;51.900;4.748;2023-01-10T10:03:23;5.93;;;1.17;;
74963;SDS011;63521;51.900;4.748;2023-01-10T10:05:52;4.40;;;1.60;;
74963;SDS011;63521;51.900;4.748;2023-01-10T10:08:17;4.35;;;1.30;;
74963;SDS011;63521;51.900;4.748;2023-01-10T10:16:31;3.13;;;1.30;;
74963;SDS011;63521;51.900;4.748;2023-01-10T10:21:59;1.90;;;0.93;;
74963;SDS011;63521;51.900;4.748;2023-01-10T10:24:34;3.25;;;1.15;;
74963;SDS011;63521;51.900;4.748;2023-01-10T10:27:44;2.53;;;1.08;;
74963;SDS011;63521;51.900;4.748;2023-01-10T10:30:21;3.88;;;1.23;;
74963;SDS011;63521;51.900;4.748;2023-01-10T10:36:02;3.05;;;1.13;;
74963;SDS011;63521;51.900;4.748;2023-01-10T10:38:33;3.58;;;0.98;;
74963;SDS011;63521;51.900;4.748;2023-01-10T10:41:02;3.83;;;1.00;;
74963;SDS011;63521;51.900;4.748;2023-01-10T10:43:29;4.93;;;1.27;;
74963;SDS011;63521;51.900;4.748;2023-01-10T10:45:57;2.55;;;0.93;;
74963;SDS011;63521;51.900;4.748;2023-01-10T10:48:26;2.72;;;0.90;;
74963;SDS011;63521;51.900;4.748;2023-01-10T10:51:07;3.25;;;1.17;;
74963;SDS011;63521;51.900;4.748;2023-01-10T10:53:36;2.10;;;1.40;;
74963;SDS011;63521;51.900;4.748;2023-01-10T10:56:03;3.78;;;0.93;;
74963;SDS011;63521;51.900;4.748;2023-01-10T10:58:30;4.18;;;1.52;;
74963;SDS011;63521;51.900;4.748;2023-01-10T11:00:56;3.10;;;1.10;;
74963;SDS011;63521;51.900;4.748;2023-01-10T11:03:41;5.20;;;1.20;;
74963;SDS011;63521;51.900;4.748;2023-01-10T11:06:09;4.20;;;1.10;;
74963;SDS011;63521;51.900;4.748;2023-01-10T11:08:35;2.05;;;0.73;;
74963;SDS011;63521;51.900;4.748;2023-01-10T11:11:30;2.88;;;1.02;;
74963;SDS011;63521;51.900;4.748;2023-01-10T11:13:58;3.35;;;1.20;;
74963;SDS011;63521;51.900;4.748;2023-01-10T11:16:26;3.05;;;0.93;;
74963;SDS011;63521;51.900;4.748;2023-01-10T11:19:38;2.75;;;1.20;;
74963;SDS011;63521;51.900;4.748;2023-01-10T11:21:44;3.00;;;0.88;;
74963;SDS011;63521;51.900;4.748;2023-01-10T11:24:26;2.03;;;1.05;;
74963;SDS011;63521;51.900;4.748;2023-01-10T11:26:53;2.75;;;1.00;;
74963;SDS011;63521;51.900;4.748;2023-01-10T11:29:21;3.47;;;0.93;;
74963;SDS011;63521;51.900;4.748;2023-01-10T11:31:53;4.53;;;1.15;;
74963;SDS011;63521;51.900;4.748;2023-01-10T11:36:57;3.42;;;1.15;;
74963;SDS011;63521;51.900;4.748;2023-01-10T11:39:25;1.85;;;0.70;;
74963;SDS011;63521;51.900;4.748;2023-01-10T11:41:50;2.00;;;0.90;;
74963;SDS011;63521;51.900;4.748;2023-01-10T11:46:46;3.65;;;1.10;;
74963;SDS011;63521;51.900;4.748;2023-01-10T11:49:29;3.78;;;1.08;;
74963;SDS011;63521;51.900;4.748;2023-01-10T11:51:58;2.90;;;1.10;;
74963;SDS011;63521;51.900;4.748;2023-01-10T11:54:28;4.40;;;1.20;;
74963;SDS011;63521;51.900;4.748;2023-01-10T11:56:55;1.30;;;0.80;;
74963;SDS011;63521;51.900;4.748;2023-01-10T11:59:22;2.58;;;1.40;;
74963;SDS011;63521;51.900;4.748;2023-01-10T12:01:58;3.17;;;1.20;;
74963;SDS011;63521;51.900;4.748;2023-01-10T12:04:27;2.28;;;1.02;;
74963;SDS011;63521;51.900;4.748;2023-01-10T12:06:56;3.05;;;1.20;;
74963;SDS011;63521;51.900;4.748;2023-01-10T12:09:35;3.25;;;1.10;;
74963;SDS011;63521;51.900;4.748;2023-01-10T12:14:47;1.83;;;1.02;;
74963;SDS011;63521;51.900;4.748;2023-01-10T12:17:55;2.75;;;1.10;;
74963;SDS011;63521;51.900;4.748;2023-01-10T12:20:02;3.38;;;0.90;;
74963;SDS011;63521;51.900;4.748;2023-01-10T12:22:37;2.55;;;1.10;;
74963;SDS011;63521;51.900;4.748;2023-01-10T12:25:17;6.07;;;1.15;;
74963;SDS011;63521;51.900;4.748;2023-01-10T12:27:45;2.00;;;0.95;;
74963;SDS011;63521;51.900;4.748;2023-01-10T12:32:43;1.85;;;1.00;;
74963;SDS011;63521;51.900;4.748;2023-01-10T12:35:19;3.90;;;1.17;;
74963;SDS011;63521;51.900;4.748;2023-01-10T12:38:01;4.55;;;1.27;;
74963;SDS011;63521;51.900;4.748;2023-01-10T12:40:42;2.13;;;1.00;;
74963;SDS011;63521;51.900;4.748;2023-01-10T12:46:05;2.00;;;1.10;;
74963;SDS011;63521;51.900;4.748;2023-01-10T12:49:17;3.72;;;1.17;;
74963;SDS011;63521;51.900;4.748;2023-01-10T12:51:25;6.45;;;1.23;;
74963;SDS011;63521;51.900;4.748;2023-01-10T12:54:00;4.75;;;1.02;;
74963;SDS011;63521;51.900;4.748;2023-01-10T12:56:29;2.97;;;1.27;;
74963;SDS011;63521;51.900;4.748;2023-01-10T12:58:59;3.28;;;1.13;;
74963;SDS011;63521;51.900;4.748;2023-01-10T13:01:29;1.75;;;0.88;;
74963;SDS011;63521;51.900;4.748;2023-01-10T13:04:03;5.60;;;0.98;;
74963;SDS011;63521;51.900;4.748;2023-01-10T13:06:35;2.58;;;0.88;;
74963;SDS011;63521;51.900;4.748;2023-01-10T13:09:06;5.60;;;1.17;;
74963;SDS011;63521;51.900;4.748;2023-01-10T13:11:36;4.68;;;1.10;;
74963;SDS011;63521;51.900;4.748;2023-01-10T13:14:06;5.05;;;1.08;;
74963;SDS011;63521;51.900;4.748;2023-01-10T13:21:29;5.28;;;1.40;;
74963;SDS011;63521;51.900;4.748;2023-01-10T13:23:57;3.08;;;1.00;;
74963;SDS011;63521;51.900;4.748;2023-01-10T13:26:25;3.10;;;1.15;;
74963;SDS011;63521;51.900;4.748;2023-01-10T13:28:58;4.88;;;1.48;;
74963;SDS011;63521;51.900;4.748;2023-01-10T13:31:24;4.95;;;1.33;;
74963;SDS011;63521;51.900;4.748;2023-01-10T13:34:00;6.47;;;1.33;;
74963;SDS011;63521;51.900;4.748;2023-01-10T13:36:36;3.65;;;1.30;;
74963;SDS011;63521;51.900;4.748;2023-01-10T13:39:04;2.70;;;1.10;;
74963;SDS011;63521;51.900;4.748;2023-01-10T13:55:32;3.00;;;1.02;;
74963;SDS011;63521;51.900;4.748;2023-01-10T14:01:16;3.95;;;1.40;;
74963;SDS011;63521;51.900;4.748;2023-01-10T14:04:06;6.55;;;1.50;;
74963;SDS011;63521;51.900;4.748;2023-01-10T14:06:33;4.35;;;1.13;;
74963;SDS011;63521;51.900;4.748;2023-01-10T14:09:27;5.63;;;1.52;;
74963;SDS011;63521;51.900;4.748;2023-01-10T14:11:52;2.95;;;1.05;;
74963;SDS011;63521;51.900;4.748;2023-01-10T14:22:31;4.10;;;1.20;;
74963;SDS011;63521;51.900;4.748;2023-01-10T14:24:58;3.50;;;1.20;;
74963;SDS011;63521;51.900;4.748;2023-01-10T14:27:26;4.47;;;1.20;;
74963;SDS011;63521;51.900;4.748;2023-01-10T14:30:15;5.82;;;1.52;;
74963;SDS011;63521;51.900;4.748;2023-01-10T14:32:52;5.47;;;1.05;;
74963;SDS011;63521;51.900;4.748;2023-01-10T14:35:21;2.47;;;0.98;;
74963;SDS011;63521;51.900;4.748;2023-01-10T14:37:50;4.70;;;1.15;;
74963;SDS011;63521;51.900;4.748;2023-01-10T14:40:21;4.50;;;1.20;;
74963;SDS011;63521;51.900;4.748;2023-01-10T14:42:50;2.60;;;0.93;;
74963;SDS011;63521;51.900;4.748;2023-01-10T14:45:27;4.65;;;1.30;;
74963;SDS011;63521;51.900;4.748;2023-01-10T14:48:33;5.82;;;1.33;;
74963;SDS011;63521;51.900;4.748;2023-01-10T14:51:07;3.30;;;1.17;;
74963;SDS011;63521;51.900;4.748;2023-01-10T14:53:36;5.90;;;1.20;;
74963;SDS011;63521;51.900;4.748;2023-01-10T14:56:01;3.72;;;1.40;;
74963;SDS011;63521;51.900;4.748;2023-01-10T14:58:26;2.75;;;1.15;;
74963;SDS011;63521;51.900;4.748;2023-01-10T15:00:52;2.58;;;0.88;;
74963;SDS011;63521;51.900;4.748;2023-01-10T15:03:20;3.10;;;1.20;;
74963;SDS011;63521;51.900;4.748;2023-01-10T15:05:48;2.65;;;1.30;;
74963;SDS011;63521;51.900;4.748;2023-01-10T15:08:25;5.85;;;1.52;;
74963;SDS011;63521;51.900;4.748;2023-01-10T15:10:53;4.85;;;1.25;;
74963;SDS011;63521;51.900;4.748;2023-01-10T15:13:21;3.15;;;1.08;;
74963;SDS011;63521;51.900;4.748;2023-01-10T15:15:48;3.13;;;1.25;;
74963;SDS011;63521;51.900;4.748;2023-01-10T15:23:17;2.77;;;1.13;;
74963;SDS011;63521;51.900;4.748;2023-01-10T15:25:43;2.97;;;1.10;;
74963;SDS011;63521;51.900;4.748;2023-01-10T15:28:15;4.75;;;1.60;;
74963;SDS011;63521;51.900;4.748;2023-01-10T15:30:43;4.43;;;1.23;;
74963;SDS011;63521;51.900;4.748;2023-01-10T15:33:13;4.85;;;1.25;;
74963;SDS011;63521;51.900;4.748;2023-01-10T15:35:40;5.78;;;1.45;;
74963;SDS011;63521;51.900;4.748;2023-01-10T15:38:14;2.72;;;1.17;;
74963;SDS011;63521;51.900;4.748;2023-01-10T15:40:41;3.28;;;1.20;;
74963;SDS011;63521;51.900;4.748;2023-01-10T15:45:42;2.58;;;1.00;;
74963;SDS011;63521;51.900;4.748;2023-01-10T15:48:42;4.50;;;1.10;;
74963;SDS011;63521;51.900;4.748;2023-01-10T15:51:02;5.13;;;1.17;;
74963;SDS011;63521;51.900;4.748;2023-01-10T15:53:48;4.00;;;1.58;;
74963;SDS011;63521;51.900;4.748;2023-01-10T15:56:21;4.28;;;1.17;;
74963;SDS011;63521;51.900;4.748;2023-01-10T15:58:50;3.75;;;1.20;;
74963;SDS011;63521;51.900;4.748;2023-01-10T16:01:15;3.90;;;1.23;;
74963;SDS011;63521;51.900;4.748;2023-01-10T16:03:45;4.50;;;1.40;;
74963;SDS011;63521;51.900;4.748;2023-01-10T16:08:48;4.47;;;1.70;;
74963;SDS011;63521;51.900;4.748;2023-01-10T16:11:18;3.60;;;1.20;;
74963;SDS011;63521;51.900;4.748;2023-01-10T16:14:07;3.08;;;1.10;;
74963;SDS011;63521;51.900;4.748;2023-01-10T16:16:32;5.57;;;1.38;;
74963;SDS011;63521;51.900;4.748;2023-01-10T16:18:58;1.55;;;1.08;;
74963;SDS011;63521;51.900;4.748;2023-01-10T16:21:24;4.70;;;1.50;;
74963;SDS011;63521;51.900;4.748;2023-01-10T16:23:51;2.33;;;1.13;;
74963;SDS011;63521;51.900;4.748;2023-01-10T16:26:16;3.53;;;1.08;;
74963;SDS011;63521;51.900;4.748;2023-01-10T16:28:42;0.90;;;0.88;;
74963;SDS011;63521;51.900;4.748;2023-01-10T16:31:09;3.13;;;1.33;;
74963;SDS011;63521;51.900;4.748;2023-01-10T16:33:36;2.60;;;1.05;;
74963;SDS011;63521;51.900;4.748;2023-01-10T16:36:02;2.05;;;0.93;;
74963;SDS011;63521;51.900;4.748;2023-01-10T16:38:28;3.20;;;1.23;;
74963;SDS011;63521;51.900;4.748;2023-01-10T16:40:58;2.70;;;1.20;;
74963;SDS011;63521;51.900;4.748;2023-01-10T16:43:25;2.65;;;1.10;;
74963;SDS011;63521;51.900;4.748;2023-01-10T16:45:51;3.60;;;1.00;;